createdAt,value
2017-11-06T00:00:27.362Z,99056.70
2017-11-06T00:02:56.017Z,99057.34
2017-11-06T00:05:23.407Z,99055.31
2017-11-06T00:07:50.837Z,99053.05
2017-11-06T00:10:18.218Z,99055.41
2017-11-06T00:12:45.674Z,99064.10
2017-11-06T00:15:13.106Z,99055.98
2017-11-06T00:17:40.489Z,99063.70
2017-11-06T00:20:07.950Z,99059.48
2017-11-06T00:22:35.329Z,99058.94
2017-11-06T00:25:02.777Z,99063.80
2017-11-06T00:27:30.179Z,99062.64
2017-11-06T00:29:57.598Z,99068.15
2017-11-06T00:32:24.992Z,99063.33
2017-11-06T00:34:52.415Z,99075.06
2017-11-06T00:37:19.802Z,99075.67
2017-11-06T00:39:47.221Z,99075.27
2017-11-06T00:42:14.633Z,99076.20
2017-11-06T00:44:42.056Z,99079.53
2017-11-06T00:47:09.489Z,99078.76
2017-11-06T00:49:36.903Z,99076.52
2017-11-06T00:52:04.343Z,99081.88
2017-11-06T00:54:31.750Z,99082.00
2017-11-06T00:56:59.193Z,99087.70
2017-11-06T00:59:27.375Z,99088.84
2017-11-06T01:01:54.804Z,99092.61
2017-11-06T01:04:22.199Z,99101.90
2017-11-06T01:06:49.618Z,99101.13
2017-11-06T01:09:17.015Z,99111.90
2017-11-06T01:11:44.436Z,99114.47
2017-11-06T01:14:11.821Z,99112.41
2017-11-06T01:16:39.256Z,99114.67
2017-11-06T01:19:06.704Z,99119.38
2017-11-06T01:21:34.122Z,99115.45
2017-11-06T01:24:01.559Z,99116.67
2017-11-06T01:28:55.998Z,99134.28
2017-11-06T01:31:23.401Z,99136.23
2017-11-06T01:33:50.828Z,99152.86
2017-11-06T01:36:18.340Z,99155.72
2017-11-06T01:38:45.801Z,99155.75
2017-11-06T01:41:13.194Z,99162.16
2017-11-06T01:43:40.603Z,99168.94
2017-11-06T01:46:08.015Z,99168.47
2017-11-06T01:48:35.423Z,99169.22
2017-11-06T01:51:02.915Z,99169.76
2017-11-06T01:53:30.356Z,99164.91
2017-11-06T01:55:57.772Z,99170.02
2017-11-06T01:58:25.177Z,99166.27
2017-11-06T02:00:52.584Z,99166.27
2017-11-06T02:03:19.975Z,99176.75
2017-11-06T02:05:47.413Z,99164.77
2017-11-06T02:08:14.804Z,99167.00
2017-11-06T02:10:42.196Z,99156.46
2017-11-06T02:13:09.616Z,99166.54
2017-11-06T02:15:37.034Z,99170.25
2017-11-06T02:18:04.413Z,99148.58
2017-11-06T02:20:31.855Z,99177.03
2017-11-06T02:22:59.256Z,99180.70
2017-11-06T02:25:26.668Z,99177.55
2017-11-06T02:27:54.085Z,99176.52
2017-11-06T02:30:21.486Z,99173.80
2017-11-06T02:32:48.934Z,99174.98
2017-11-06T02:35:16.324Z,99187.60
2017-11-06T02:37:43.756Z,99185.12
2017-11-06T02:40:11.139Z,99168.45
2017-11-06T02:42:38.607Z,99180.23
2017-11-06T02:45:06.026Z,99185.47
2017-11-06T02:47:33.459Z,99187.83
2017-11-06T02:50:00.865Z,99202.40
2017-11-06T02:52:28.313Z,99201.26
2017-11-06T02:54:55.708Z,99203.62
2017-11-06T02:57:23.095Z,99209.77
2017-11-06T02:59:50.520Z,99209.78
2017-11-06T03:02:18.756Z,99221.55
2017-11-06T03:04:46.171Z,99216.31
2017-11-06T03:07:13.575Z,99217.02
2017-11-06T03:09:40.988Z,99216.08
2017-11-06T03:12:08.404Z,99221.93
2017-11-06T03:14:35.816Z,99225.05
2017-11-06T03:17:03.216Z,99225.53
2017-11-06T03:19:30.730Z,99231.84
2017-11-06T03:21:58.131Z,99225.84
2017-11-06T03:24:25.564Z,99226.19
2017-11-06T03:26:53.003Z,99230.92
2017-11-06T03:29:20.405Z,99227.89
2017-11-06T03:31:47.847Z,99235.61
2017-11-06T03:34:15.252Z,99239.91
2017-11-06T03:36:42.681Z,99232.71
2017-11-06T03:39:10.100Z,99244.00
2017-11-06T03:41:37.526Z,99241.91
2017-11-06T03:44:04.912Z,99248.36
2017-11-06T03:46:32.319Z,99249.84
2017-11-06T03:48:59.716Z,99252.94
2017-11-06T03:51:27.132Z,99253.52
2017-11-06T03:53:54.534Z,99255.58
2017-11-06T03:56:21.916Z,99256.40
2017-11-06T03:58:49.357Z,99255.47
2017-11-06T04:01:16.776Z,99258.59
2017-11-06T04:03:44.212Z,99262.59
2017-11-06T04:06:11.610Z,99263.41
2017-11-06T04:08:39.024Z,99270.86
2017-11-06T04:11:06.425Z,99270.42
2017-11-06T04:13:33.846Z,99250.19
2017-11-06T04:16:01.267Z,99275.08
2017-11-06T04:18:29.379Z,99265.78
2017-11-06T04:20:56.807Z,99279.11
2017-11-06T04:23:26.008Z,99276.27
2017-11-06T04:25:53.431Z,99276.77
2017-11-06T04:28:20.826Z,99272.34
2017-11-06T04:30:48.272Z,99279.64
2017-11-06T04:33:15.687Z,99286.02
2017-11-06T04:35:43.099Z,99286.89
2017-11-06T04:38:10.495Z,99292.30
2017-11-06T04:40:37.916Z,99302.91
2017-11-06T04:43:05.311Z,99305.59
2017-11-06T04:45:32.740Z,99310.88
2017-11-06T04:48:00.135Z,99317.73
2017-11-06T04:50:27.524Z,99313.91
2017-11-06T04:52:54.940Z,99317.73
2017-11-06T04:55:22.327Z,99322.16
2017-11-06T04:57:49.746Z,99325.02
2017-11-06T05:00:17.140Z,99320.89
2017-11-06T05:02:44.576Z,99327.11
2017-11-06T05:05:11.975Z,99323.78
2017-11-06T05:07:39.399Z,99322.41
2017-11-06T05:10:06.815Z,99328.11
2017-11-06T05:12:34.208Z,99327.47
2017-11-06T05:15:01.628Z,99328.14
2017-11-06T05:17:29.015Z,99329.70
2017-11-06T05:19:56.439Z,99332.50
2017-11-06T05:22:23.820Z,99333.97
2017-11-06T05:24:51.257Z,99335.55
2017-11-06T05:27:18.645Z,99335.02
2017-11-06T05:29:46.077Z,99340.12
2017-11-06T05:32:13.477Z,99340.39
2017-11-06T05:34:40.882Z,99339.89
2017-11-06T05:37:08.268Z,99338.41
2017-11-06T05:39:35.719Z,99345.43
2017-11-06T05:42:03.144Z,99352.36
2017-11-06T05:44:30.571Z,99350.42
2017-11-06T05:46:57.988Z,99353.65
2017-11-06T05:49:25.407Z,99333.29
2017-11-06T05:51:52.803Z,99355.05
2017-11-06T05:54:20.235Z,99356.41
2017-11-06T05:56:48.553Z,99360.31
2017-11-06T05:59:15.980Z,99363.20
2017-11-06T06:01:43.368Z,99370.09
2017-11-06T06:04:10.797Z,99375.01
2017-11-06T06:06:39.040Z,99380.86
2017-11-06T06:09:06.436Z,99379.00
2017-11-06T06:11:33.873Z,99385.80
2017-11-06T06:14:01.249Z,99386.25
2017-11-06T06:16:28.669Z,99387.16
2017-11-06T06:18:56.087Z,99391.11
2017-11-06T06:21:23.472Z,99393.48
2017-11-06T06:23:50.922Z,99387.91
2017-11-06T06:26:18.396Z,99398.50
2017-11-06T06:28:45.911Z,99397.48
2017-11-06T06:31:13.306Z,99401.66
2017-11-06T06:33:40.729Z,99399.08
2017-11-06T06:36:08.142Z,99404.45
2017-11-06T06:38:35.576Z,99411.05
2017-11-06T06:41:03.007Z,99413.36
2017-11-06T06:43:30.428Z,99412.25
2017-11-06T06:45:57.893Z,99404.10
2017-11-06T06:48:25.307Z,99404.88
2017-11-06T06:50:52.793Z,99406.06
2017-11-06T06:53:20.200Z,99405.47
2017-11-06T06:55:47.652Z,99410.55
2017-11-06T06:58:15.057Z,99417.11
2017-11-06T07:00:42.742Z,99426.62
2017-11-06T07:03:14.947Z,99434.53
2017-11-06T07:05:42.411Z,99434.29
2017-11-06T07:08:09.829Z,99434.27
2017-11-06T07:10:37.880Z,99442.63
2017-11-06T07:13:05.280Z,99437.23
2017-11-06T07:15:32.719Z,99453.08
2017-11-06T07:18:00.099Z,99452.19
2017-11-06T07:20:27.733Z,99451.05
2017-11-06T07:22:55.165Z,99456.05
2017-11-06T07:25:22.559Z,99453.40
2017-11-06T07:27:50.890Z,99458.72
2017-11-06T07:30:18.289Z,99465.78
2017-11-06T07:32:45.707Z,99471.50
2017-11-06T07:35:13.152Z,99473.58
2017-11-06T07:37:40.576Z,99472.81
2017-11-06T07:40:07.995Z,99476.31
2017-11-06T07:42:36.815Z,99484.35
2017-11-06T07:45:06.766Z,99490.74
2017-11-06T07:47:34.330Z,99492.66
2017-11-06T07:50:04.826Z,99492.66
2017-11-06T07:52:32.456Z,99494.50
2017-11-06T07:55:00.029Z,99500.07
2017-11-06T07:57:33.050Z,99505.57
2017-11-06T08:00:03.064Z,99503.66
2017-11-06T08:02:32.493Z,99502.78
2017-11-06T08:05:03.281Z,99508.82
2017-11-06T08:07:30.676Z,99512.27
2017-11-06T08:09:58.113Z,99500.59
2017-11-06T08:12:28.087Z,99518.36
2017-11-06T08:14:55.607Z,99524.11
2017-11-06T08:17:24.041Z,99521.13
2017-11-06T08:19:52.296Z,99532.44
2017-11-06T08:22:19.871Z,99525.17
2017-11-06T08:24:47.255Z,99535.39
2017-11-06T08:27:14.870Z,99534.95
2017-11-06T08:29:42.356Z,99538.19
2017-11-06T08:32:12.620Z,99538.79
2017-11-06T08:34:40.039Z,99535.03
2017-11-06T08:37:07.545Z,99544.11
2017-11-06T08:39:34.960Z,99531.70
2017-11-06T08:42:02.372Z,99535.55
2017-11-06T08:44:29.800Z,99535.48
2017-11-06T08:46:57.228Z,99535.75
2017-11-06T08:49:25.613Z,99545.61
2017-11-06T08:51:53.099Z,99544.88
2017-11-06T08:54:20.490Z,99542.61
2017-11-06T08:56:48.834Z,99553.38
2017-11-06T08:59:16.296Z,99545.89
2017-11-06T09:01:43.767Z,99538.95
2017-11-06T09:04:11.196Z,99554.09
2017-11-06T09:06:38.596Z,99550.61
2017-11-06T09:09:06.041Z,99549.22
2017-11-06T09:11:33.460Z,99550.10
2017-11-06T09:14:00.947Z,99556.84
2017-11-06T09:16:28.406Z,99551.58
2017-11-06T09:18:55.840Z,99555.76
2017-11-06T09:21:24.028Z,99557.38
2017-11-06T09:23:51.433Z,99557.55
2017-11-06T09:26:18.860Z,99556.03
2017-11-06T09:28:56.213Z,99537.45
2017-11-06T09:31:23.690Z,99552.41
2017-11-06T09:33:51.128Z,99559.20
2017-11-06T09:36:18.625Z,99558.02
2017-11-06T09:38:46.041Z,99563.37
2017-11-06T09:41:13.499Z,99568.33
2017-11-06T09:43:40.935Z,99567.59
2017-11-06T09:46:08.563Z,99576.38
2017-11-06T09:48:35.987Z,99574.42
2017-11-06T09:51:03.429Z,99573.67
2017-11-06T09:53:30.847Z,99560.38
2017-11-06T09:56:00.896Z,99555.84
2017-11-06T09:58:28.459Z,99561.94
2017-11-06T10:00:55.914Z,99553.63
2017-11-06T10:06:02.090Z,99561.20
2017-11-06T10:08:29.627Z,99555.54
2017-11-06T10:10:57.022Z,99555.27
2017-11-06T10:13:24.471Z,99550.97
2017-11-06T10:15:51.867Z,99557.69
2017-11-06T10:18:20.214Z,99555.58
2017-11-06T10:20:47.837Z,99551.45
2017-11-06T10:23:15.269Z,99557.55
2017-11-06T10:25:43.409Z,99562.88
2017-11-06T10:28:10.824Z,99562.08
2017-11-06T10:30:38.224Z,99549.24
2017-11-06T10:33:12.741Z,99559.50
2017-11-06T10:35:40.137Z,99552.02
2017-11-06T10:38:07.547Z,99547.20
2017-11-06T10:40:34.983Z,99550.51
2017-11-06T10:43:02.389Z,99552.00
2017-11-06T10:45:32.074Z,99550.55
2017-11-06T10:48:00.959Z,99549.59
2017-11-06T10:53:09.802Z,99555.73
2017-11-06T10:55:39.488Z,99560.02
2017-11-06T10:58:09.103Z,99560.91
2017-11-06T11:00:36.536Z,99558.34
2017-11-06T11:03:03.931Z,99565.28
2017-11-06T11:05:31.370Z,99564.67
2017-11-06T11:07:58.803Z,99560.87
2017-11-06T11:10:26.232Z,99566.90
2017-11-06T11:12:53.641Z,99571.73
2017-11-06T11:15:21.069Z,99567.75
2017-11-06T11:17:48.488Z,99571.17
2017-11-06T11:20:15.963Z,99568.67
2017-11-06T11:22:43.375Z,99570.83
2017-11-06T11:25:10.795Z,99573.16
2017-11-06T11:27:38.215Z,99574.62
2017-11-06T11:30:05.621Z,99571.16
2017-11-06T11:32:33.101Z,99566.86
2017-11-06T11:35:00.488Z,99568.70
2017-11-06T11:37:27.928Z,99570.83
2017-11-06T11:39:55.362Z,99523.14
2017-11-06T11:42:22.823Z,99575.55
2017-11-06T11:44:50.265Z,99572.84
2017-11-06T11:47:17.735Z,99567.42
2017-11-06T11:49:45.158Z,99522.22
2017-11-06T11:52:12.630Z,99567.77
2017-11-06T11:54:40.079Z,99578.38
2017-11-06T11:57:07.530Z,99573.02
2017-11-06T11:59:34.992Z,99582.25
2017-11-06T12:02:03.707Z,99569.66
2017-11-06T12:04:31.934Z,99584.47
2017-11-06T12:06:59.381Z,99572.69
2017-11-06T12:09:26.837Z,99572.64
2017-11-06T12:11:54.260Z,99567.52
2017-11-06T12:14:21.705Z,99572.75
2017-11-06T12:16:49.125Z,99563.94
2017-11-06T12:19:16.567Z,99570.13
2017-11-06T12:21:44.184Z,99568.94
2017-11-06T12:24:11.602Z,99564.59
2017-11-06T12:26:39.086Z,99568.34
2017-11-06T12:29:06.557Z,99517.97
2017-11-06T12:31:33.969Z,99562.00
2017-11-06T12:34:01.384Z,99562.28
2017-11-06T12:36:28.887Z,99567.06
2017-11-06T12:38:56.424Z,99559.20
2017-11-06T12:41:23.866Z,99577.09
2017-11-06T12:43:52.632Z,99565.48
2017-11-06T12:46:20.081Z,99567.83
2017-11-06T12:48:47.626Z,99566.68
2017-11-06T12:51:15.109Z,99567.53
2017-11-06T12:53:42.534Z,99566.02
2017-11-06T12:56:09.948Z,99565.94
2017-11-06T12:58:37.384Z,99566.47
2017-11-06T13:01:04.802Z,99569.57
2017-11-06T13:03:32.261Z,99572.16
2017-11-06T13:05:59.708Z,99571.73
2017-11-06T13:08:27.424Z,99573.35
2017-11-06T13:10:54.937Z,99569.67
2017-11-06T13:13:22.371Z,99569.90
2017-11-06T13:15:49.777Z,99565.64
2017-11-06T13:18:17.245Z,99578.34
2017-11-06T13:20:44.671Z,99576.43
2017-11-06T13:23:12.104Z,99581.38
2017-11-06T13:25:39.492Z,99582.07
2017-11-06T13:28:06.948Z,99582.92
2017-11-06T13:30:34.345Z,99582.87
2017-11-06T13:33:01.756Z,99580.35
2017-11-06T13:35:29.674Z,99584.97
2017-11-06T13:37:57.336Z,99582.30
2017-11-06T13:40:24.779Z,99584.95
2017-11-06T13:42:52.237Z,99587.42
2017-11-06T13:45:19.661Z,99583.34
2017-11-06T13:47:47.068Z,99589.78
2017-11-06T13:50:14.477Z,99601.48
2017-11-06T13:52:42.057Z,99593.22
2017-11-06T13:55:09.476Z,99591.94
2017-11-06T13:57:36.896Z,99592.58
2017-11-06T14:00:04.365Z,99596.77
2017-11-06T14:02:31.781Z,99610.48
2017-11-06T14:04:59.212Z,99608.84
2017-11-06T14:07:26.636Z,99610.80
2017-11-06T14:09:54.071Z,99608.56
2017-11-06T14:12:21.489Z,99612.39
2017-11-06T14:14:48.888Z,99611.34
2017-11-06T14:17:16.349Z,99614.42
2017-11-06T14:19:43.739Z,99606.20
2017-11-06T14:22:11.152Z,99613.59
2017-11-06T14:24:39.493Z,99615.36
2017-11-06T14:27:06.937Z,99622.02
2017-11-06T14:29:34.351Z,99628.50
2017-11-06T14:32:01.803Z,99631.94
2017-11-06T14:34:29.211Z,99634.27
2017-11-06T14:36:56.653Z,99638.83
2017-11-06T14:39:24.081Z,99637.32
2017-11-06T14:41:51.490Z,99631.17
2017-11-06T14:44:19.004Z,99647.45
2017-11-06T14:46:46.399Z,99648.57
2017-11-06T14:49:13.830Z,99641.73
2017-11-06T14:51:41.234Z,99640.81
2017-11-06T14:54:08.668Z,99641.28
2017-11-06T14:56:36.093Z,99634.82
2017-11-06T14:59:03.535Z,99651.16
2017-11-06T15:01:30.976Z,99649.38
2017-11-06T15:03:58.434Z,99647.56
2017-11-06T15:06:25.891Z,99637.26
2017-11-06T15:08:53.307Z,99645.42
2017-11-06T15:11:21.207Z,99633.65
2017-11-06T15:13:48.627Z,99650.19
2017-11-06T15:16:16.068Z,99652.27
2017-11-06T15:18:43.489Z,99651.36
2017-11-06T15:21:10.932Z,99649.17
2017-11-06T15:23:38.348Z,99623.82
2017-11-06T15:26:05.752Z,99655.85
2017-11-06T15:28:33.170Z,99653.78
2017-11-06T15:31:00.604Z,99657.55
2017-11-06T15:33:28.071Z,99652.89
2017-11-06T15:35:55.480Z,99634.93
2017-11-06T15:38:22.922Z,99661.22
2017-11-06T15:40:50.344Z,99667.45
2017-11-06T15:43:17.789Z,99658.45
2017-11-06T15:45:45.189Z,99663.94
2017-11-06T15:48:12.658Z,99664.30
2017-11-06T15:50:40.091Z,99666.63
2017-11-06T15:53:07.584Z,99660.33
2017-11-06T15:55:35.011Z,99671.30
2017-11-06T15:58:02.637Z,99668.91
2017-11-06T16:00:30.057Z,99672.39
2017-11-06T16:02:57.479Z,99668.49
2017-11-06T16:05:24.900Z,99670.32
2017-11-06T16:07:52.295Z,99675.48
2017-11-06T16:10:19.740Z,99668.74
2017-11-06T16:12:47.135Z,99658.87
2017-11-06T16:15:14.580Z,99671.73
2017-11-06T16:17:42.001Z,99682.81
2017-11-06T16:20:09.424Z,99685.83
2017-11-06T16:22:36.816Z,99670.09
2017-11-06T16:25:04.237Z,99698.39
2017-11-06T16:27:31.855Z,99690.08
2017-11-06T16:29:59.356Z,99685.10
2017-11-06T16:32:26.793Z,99699.36
2017-11-06T16:34:54.264Z,99715.30
2017-11-06T16:37:21.651Z,99701.00
2017-11-06T16:39:49.146Z,99708.98
2017-11-06T16:42:16.662Z,99703.90
2017-11-06T16:44:44.169Z,99708.34
2017-11-06T16:47:11.569Z,99713.98
2017-11-06T16:49:39.012Z,99698.03
2017-11-06T16:52:06.464Z,99704.90
2017-11-06T16:54:33.888Z,99711.20
2017-11-06T16:57:01.288Z,99718.27
2017-11-06T16:59:28.764Z,99712.86
2017-11-06T17:01:56.205Z,99722.98
2017-11-06T17:04:23.649Z,99723.39
2017-11-06T17:06:51.039Z,99718.25
2017-11-06T17:09:19.284Z,99711.33
2017-11-06T17:11:46.744Z,99709.83
2017-11-06T17:14:14.167Z,99716.89
2017-11-06T17:16:41.620Z,99718.48
2017-11-06T17:19:09.071Z,99726.03
2017-11-06T17:21:36.528Z,99725.27
2017-11-06T17:24:03.916Z,99733.22
2017-11-06T17:26:31.360Z,99721.86
2017-11-06T17:28:58.771Z,99741.85
2017-11-06T17:31:26.192Z,99747.16
2017-11-06T17:33:53.624Z,99742.44
2017-11-06T17:36:21.011Z,99748.05
2017-11-06T17:38:48.458Z,99752.31
2017-11-06T17:41:15.895Z,99751.33
2017-11-06T17:43:43.446Z,99740.15
2017-11-06T17:46:10.874Z,99748.38
2017-11-06T17:48:38.369Z,99745.64
2017-11-06T17:51:05.782Z,99752.64
2017-11-06T17:53:33.213Z,99760.14
2017-11-06T17:56:00.646Z,99761.52
2017-11-06T17:58:28.150Z,99763.67
2017-11-06T18:00:55.615Z,99758.42
2017-11-06T18:03:23.081Z,99768.95
2017-11-06T18:05:50.532Z,99765.28
2017-11-06T18:08:17.954Z,99772.66
2017-11-06T18:10:45.430Z,99765.22
2017-11-06T18:13:13.595Z,99769.13
2017-11-06T18:15:41.169Z,99771.87
2017-11-06T18:18:08.586Z,99775.81
2017-11-06T18:20:36.037Z,99773.31
2017-11-06T18:23:03.439Z,99774.79
2017-11-06T18:25:30.959Z,99774.73
2017-11-06T18:27:58.394Z,99771.98
2017-11-06T18:30:25.843Z,99776.36
2017-11-06T18:32:53.296Z,99773.42
2017-11-06T18:35:20.683Z,99759.17
2017-11-06T18:37:48.156Z,99761.12
2017-11-06T18:40:15.599Z,99765.09
2017-11-06T18:42:43.029Z,99765.43
2017-11-06T18:45:10.463Z,99767.83
2017-11-06T18:47:37.893Z,99763.88
2017-11-06T18:50:05.351Z,99771.05
2017-11-06T18:52:32.778Z,99769.61
2017-11-06T18:55:00.239Z,99763.14
2017-11-06T18:57:27.878Z,99775.92
2017-11-06T18:59:55.368Z,99776.48
2017-11-06T19:02:22.841Z,99769.39
2017-11-06T19:04:51.171Z,99769.73
2017-11-06T19:07:18.561Z,99771.53
2017-11-06T19:09:46.063Z,99775.98
2017-11-06T19:12:13.556Z,99771.84
2017-11-06T19:14:40.971Z,99777.98
2017-11-06T19:17:08.433Z,99771.17
2017-11-06T19:19:35.875Z,99760.92
2017-11-06T19:22:03.774Z,99767.56
2017-11-06T19:24:31.280Z,99776.59
2017-11-06T19:26:58.735Z,99781.75
2017-11-06T19:29:26.171Z,99783.23
2017-11-06T19:31:53.624Z,99773.05
2017-11-06T19:34:21.059Z,99772.41
2017-11-06T19:36:48.531Z,99763.16
2017-11-06T19:39:15.997Z,99783.14
2017-11-06T19:41:43.463Z,99785.77
2017-11-06T19:44:10.892Z,99787.36
2017-11-06T19:46:38.359Z,99787.78
2017-11-06T19:49:05.794Z,99788.23
2017-11-06T19:51:33.299Z,99789.86
2017-11-06T19:54:00.764Z,99788.03
2017-11-06T19:56:28.198Z,99782.47
2017-11-06T19:58:55.649Z,99791.11
2017-11-06T20:01:23.068Z,99799.14
2017-11-06T20:03:50.544Z,99805.13
2017-11-06T20:06:18.022Z,99809.08
2017-11-06T20:08:45.526Z,99805.64
2017-11-06T20:11:12.944Z,99812.12
2017-11-06T20:13:40.394Z,99803.58
2017-11-06T20:16:13.396Z,99813.52
2017-11-06T20:18:41.061Z,99809.94
2017-11-06T20:21:08.505Z,99808.38
2017-11-06T20:23:36.805Z,99809.94
2017-11-06T20:26:04.233Z,99812.87
2017-11-06T20:28:31.638Z,99806.56
2017-11-06T20:30:59.281Z,99806.72
2017-11-06T20:33:26.715Z,99811.26
2017-11-06T20:35:54.239Z,99805.58
2017-11-06T20:38:21.741Z,99802.36
2017-11-06T20:40:49.190Z,99795.80
2017-11-06T20:43:16.860Z,99793.88
2017-11-06T20:45:44.280Z,99795.92
2017-11-06T20:48:11.730Z,99804.42
2017-11-06T20:50:39.177Z,99795.55
2017-11-06T20:53:06.569Z,99791.12
2017-11-06T20:55:34.036Z,99798.09
2017-11-06T20:58:01.443Z,99798.41
2017-11-06T21:00:28.940Z,99789.77
2017-11-06T21:02:56.506Z,99785.89
2017-11-06T21:05:23.982Z,99781.70
2017-11-06T21:07:51.423Z,99780.45
2017-11-06T21:10:19.795Z,99771.45
2017-11-06T21:12:47.445Z,99767.13
2017-11-06T21:15:14.897Z,99765.05
2017-11-06T21:17:42.600Z,99774.88
2017-11-06T21:20:10.044Z,99772.74
2017-11-06T21:22:37.697Z,99768.51
2017-11-06T21:25:05.114Z,99764.87
2017-11-06T21:27:32.569Z,99766.61
2017-11-06T21:30:05.602Z,99765.80
2017-11-06T21:32:33.170Z,99767.88
2017-11-06T21:35:01.621Z,99762.17
2017-11-06T21:37:29.049Z,99748.56
2017-11-06T21:39:56.502Z,99761.77
2017-11-06T21:42:24.018Z,99751.55
2017-11-06T21:44:51.429Z,99759.81
2017-11-06T21:47:18.893Z,99759.09
2017-11-06T21:49:46.324Z,99764.06
2017-11-06T21:52:13.803Z,99769.09
2017-11-06T21:54:41.303Z,99762.17
2017-11-06T21:57:08.706Z,99763.35
2017-11-06T21:59:36.148Z,99759.83
2017-11-06T22:02:03.576Z,99758.55
2017-11-06T22:04:31.022Z,99759.09
2017-11-06T22:06:58.487Z,99759.59
2017-11-06T22:09:25.994Z,99740.20
2017-11-06T22:11:53.456Z,99746.21
2017-11-06T22:14:20.937Z,99749.58
2017-11-06T22:16:48.394Z,99741.19
2017-11-06T22:19:15.825Z,99744.59
2017-11-06T22:21:43.248Z,99753.38
2017-11-06T22:24:10.832Z,99748.95
2017-11-06T22:26:38.244Z,99777.88
2017-11-06T22:29:05.643Z,99746.95
2017-11-06T22:31:33.092Z,99746.90
2017-11-06T22:34:00.510Z,99724.03
2017-11-06T22:36:27.948Z,99750.25
2017-11-06T22:38:55.396Z,99746.06
2017-11-06T22:41:22.820Z,99725.59
2017-11-06T22:43:50.263Z,99742.09
2017-11-06T22:46:17.674Z,99738.52
2017-11-06T22:48:45.142Z,99740.18
2017-11-06T22:51:12.550Z,99742.28
2017-11-06T22:53:39.993Z,99731.55
2017-11-06T22:56:07.417Z,99726.91
2017-11-06T22:58:34.893Z,99721.73
2017-11-06T23:01:02.343Z,99725.81
2017-11-06T23:03:29.887Z,99708.22
2017-11-06T23:05:57.290Z,99712.00
2017-11-06T23:08:24.753Z,99719.29
2017-11-06T23:10:52.209Z,99708.19
2017-11-06T23:13:19.644Z,99712.59
2017-11-06T23:15:47.098Z,99716.64
2017-11-06T23:18:14.488Z,99709.44
2017-11-06T23:20:41.919Z,99712.75
2017-11-06T23:23:09.324Z,99719.33
2017-11-06T23:25:36.789Z,99721.20
2017-11-06T23:28:04.195Z,99719.56
2017-11-06T23:30:31.596Z,99718.59
2017-11-06T23:32:59.043Z,99713.06
2017-11-06T23:35:27.475Z,99707.73
2017-11-06T23:37:54.941Z,99705.62
2017-11-06T23:40:22.351Z,99709.05
2017-11-06T23:42:49.803Z,99712.06
2017-11-06T23:45:17.234Z,99706.65
2017-11-06T23:47:44.672Z,99707.06
2017-11-06T23:50:12.984Z,99701.73
2017-11-06T23:52:40.487Z,99702.64
2017-11-06T23:55:07.910Z,99701.92
2017-11-06T23:57:35.355Z,99699.84
